Tropical Cyclones
[Index]
Main Index Home Page Stock Weather Photos Extreme Storms Discussion Storm News and Storm Chasing Reports Tropical Cyclones / Hurricanes / Typhoons Weather Data and Links Wild Fires / Bushfires Weather Observation Techniques Weather Picture Catalogue Tornado Pictures and Reports Stock Video Footage and DVDs for sale
Season 1994-1995 Tropical Cyclone FODAH Track Map
Season 1994-1995 Summaries: [BoM-AU] [JTWC-AU] [JTWC-SIO] [JTWC-SPAC] [JTWC-SH]
<<- Previous TC | JTWC 1994-1995 Season | Next TC ->>

click for intensity scale information  Lat/long Grid: Show Hide

 Date Labels: Show Hide

Joint Typhoon Warning Centre Cyclone Data

Name: FODAH

19 Jan 1995 12:00 UTC to 27 Jan 1995 06:00 UTC

    date/time    lat    long     hPa   cat  kts
1995-01-19 12   20.0    38.0                  15          
1995-01-19 18   19.5    38.0                  15          
1995-01-20 00   19.0    38.0                  15          
1995-01-20 06   18.5    38.0                  15          
1995-01-20 12   18.0    38.0                  15          
1995-01-20 18   17.6    38.1                  15          
1995-01-21 00   17.2    38.3                  15          
1995-01-21 06   16.9    38.6                  15          
1995-01-21 12   16.9    39.0                  15          
1995-01-21 18   16.9    39.4                  15          
1995-01-22 00   17.2    39.8                  20          
1995-01-22 06   17.7    40.0                  20          
1995-01-22 12   18.2    40.2                  20          
1995-01-22 18   18.7    40.4                  20          
1995-01-23 00   19.1    40.6                  25          
1995-01-23 06   19.6    40.7                  25          
1995-01-23 12   20.1    40.8                  30          
1995-01-23 18   20.7    40.9                  35          
1995-01-24 00   21.4    40.9            1     40          
1995-01-24 06   22.2    40.9            1     45          
1995-01-24 12   23.0    41.0            1     45          
1995-01-24 18   23.9    41.0            1     45          
1995-01-25 00   24.8    41.1            1     45          
1995-01-25 06   25.8    41.3            1     45          
1995-01-25 12   27.0    41.3            1     45          
1995-01-25 18   28.2    41.3            1     45          
1995-01-26 00   29.5    41.3            1     45          
1995-01-26 06   30.7    41.5            1     40          
1995-01-26 12   31.8    42.1                  35          
1995-01-26 18   32.5    43.2                  30          
1995-01-27 00   32.8    44.4                  30          
1995-01-27 06   33.0    45.6                  25          
Winds are 1-min average.

Tropical cyclone tracks developed by Michael Bath using data from the Joint Typhoon Warning Centre Best Tracks and Google Maps.


[Australian Severe Weather index] [Copyright Notice] [Email Contacts] [Search This Site] [Privacy Policy]
Document: tropical_cyclone_fodah.htm Updated: 18 September 2016